EW2784 Weather Reports


time (UTC)temp
C
wind
direction
speed
KPH
gust
KPH
rain 1hr
cm
rain 24hr
cm
rain mn
cm
humidity
%
barometer
mb
20201126035427 12 245 8.0 20.9 0.05 3.10 3.10 99 1007.4
20201126034926 12 260 8.0 20.9 0.10 3.10 3.10 99 1007.5
20201126034430 12 218 8.0 20.9 0.18 3.10 3.10 99 1007.5
20201126033926 12 208 8.0 20.9 0.23 3.10 3.10 99 1007.3
20201126033426 12 257 9.7 20.9 0.36 3.10 3.10 99 1007.4
20201126032927 12 288 9.7 20.9 0.43 3.10 3.10 99 1007.3
20201126032429 12 139 9.7 19.3 0.43 3.10 3.10 99 1007.0
20201126031926 12 259 9.7 30.6 0.43 3.10 3.10 99 1007.0
20201126031427 12 189 9.7 30.6 0.43 3.10 3.10 99 1007.0
20201126030929 12 258 12.9 30.6 0.43 3.10 3.10 99 1007.2
20201126030426 12 258 9.7 29.0 0.41 3.07 3.07 99 1007.1
20201126025924 11 266 8.0 20.9 0.38 3.05 3.05 99 1007.3
20201126025427 12 250 8.0 17.7 0.38 3.05 3.05 99 1007.4
20201126024924 11 230 8.0 19.3 0.33 3.00 3.00 99 1007.4
20201126024423 12 241 8.0 20.9 0.28 2.92 2.92 99 1007.1
20201126023925 12 246 8.0 20.9 0.23 2.87 2.87 98 1007.1
20201126023423 12 189 6.4 19.3 0.10 2.74 2.74 96 1007.0
20201126022924 12 267 8.0 22.5 0.03 2.69 2.69 96 1006.9
20201126022429 12 248 8.0 22.5 0.00 2.67 2.67 93 1006.8
20201126021928 12 235 8.0 17.7 0.00 2.67 2.67 94 1006.7
20201126021425 12 168 6.4 17.7 0.00 2.67 2.67 93 1006.7
20201126020925 12 139 6.4 20.9 0.00 2.67 2.67 94 1006.6
20201126020426 12 161 6.4 20.9 0.00 2.67 2.67 94 1006.6
20201126015924 12 163 6.4 16.1 0.00 2.67 2.67 96 1006.6
20201126015425 12 192 6.4 12.9 0.00 2.67 2.67 96 1006.9
20201126014924 12 162 6.4 17.7 0.00 2.67 2.67 97 1007.1
20201126014425 11 135 4.8 17.7 0.00 2.67 2.67 97 1007.1
20201126013931 11 153 3.2 12.9 0.00 2.67 2.67 98 1007.1
20201126013424 11 159 4.8 12.9 0.00 2.67 2.67 98 1007.2
20201126012928 11 143 4.8 12.9 0.00 2.67 2.67 98 1007.4
20201126012422 11 155 4.8 12.9 0.00 2.67 2.67 98 1007.4
20201126011920 11 149 4.8 9.7 0.00 2.67 2.67 98 1007.4
20201126011420 11 201 3.2 11.3 0.00 2.67 2.67 98 1007.5
20201126010922 11 206 4.8 16.1 0.00 2.67 2.67 98 1007.7
20201126010415 11 157 6.4 17.7 0.00 2.67 2.67 98 1007.8
20201126005918 10 137 4.8 17.7 0.00 2.67 2.67 98 1007.7
20201126005420 10 151 4.8 11.3 0.00 2.67 2.67 98 1008.0
20201126004916 10 159 4.8 14.5 0.00 2.67 2.67 98 1008.1
20201126004420 10 0 4.8 14.5 0.00 2.67 2.67 98 1008.2
20201126003916 10 139 4.8 9.7 0.00 2.67 2.67 98 1008.4
20201126003416 10 130 4.8 14.5 0.00 2.67 2.67 97 1008.4
20201126002918 10 125 6.4 14.5 0.00 2.67 2.67 97 1008.4
20201126002417 10 138 6.4 11.3 0.00 2.67 2.67 97 1008.4
20201126001919 10 130 4.8 12.9 0.00 2.67 2.67 97 1008.7
20201126001416 10 135 4.8 12.9 0.00 2.67 2.67 97 1008.7
20201126000920 10 151 3.2 8.0 0.00 2.67 2.67 97 1009.0
20201126000420 10 182 3.2 11.3 0.00 2.67 2.67 97 1009.0
20201125235913 10 157 4.8 14.5 0.00 2.67 2.67 97 1009.0
20201125235413 10 155 4.8 14.5 0.00 2.67 2.67 97 1009.0
20201125234914 10 189 3.2 11.3 0.00 2.67 2.67 97 1009.2
20201125234414 10 0 4.8 20.9 0.00 2.67 2.67 97 1009.3
20201125233917 10 128 4.8 20.9 0.00 2.67 2.67 97 1009.3
20201125233410 10 154 4.8 12.9 0.00 2.67 2.67 97 1009.4
20201125232911 10 131 4.8 11.3 0.00 2.67 2.67 97 1009.3
20201125232411 10 147 4.8 11.3 0.00 2.67 2.67 97 1009.4
20201125231911 10 147 3.2 9.7 0.00 2.67 2.67 97 1009.5
20201125231410 10 161 4.8 11.3 0.00 2.67 2.67 97 1009.5
20201125230911 10 170 4.8 12.9 0.00 2.67 2.67 97 1009.7
20201125230410 10 140 4.8 14.5 0.00 2.67 2.67 97 1009.6
20201125225915 10 99 6.4 14.5 0.00 2.64 2.64 97 1009.7
20201125225411 10 163 4.8 14.5 0.00 2.64 2.64 97 1009.8
20201125224910 10 254 4.8 14.5 0.00 2.64 2.64 97 1009.7
20201125224414 10 135 4.8 12.9 0.00 2.64 2.64 97 1009.7
20201125223910 10 184 3.2 12.9 0.00 2.64 2.64 97 1009.7
20201125223411 10 151 4.8 17.7 0.00 2.64 2.64 97 1009.7
20201125222915 10 148 6.4 17.7 0.00 2.64 2.64 98 1009.7
20201125222411 10 239 6.4 14.5 0.00 2.64 2.64 98 1009.8
20201125221912 10 152 6.4 14.5 0.00 2.64 2.64 98 1009.8
20201125221415 10 218 6.4 14.5 0.00 2.64 2.64 99 1009.8
20201125220911 10 155 4.8 14.5 0.00 2.64 2.64 99 1009.9
20201125220407 10 187 4.8 16.1 0.00 2.64 2.64 99 1009.9
20201125215902 10 153 4.8 12.9 0.00 2.64 2.64 99 1009.9
20201125215403 10 192 6.4 14.5 0.00 2.64 2.64 99 1010.0
20201125214910 9 144 4.8 14.5 0.00 2.64 2.64 99 1009.9
20201125214400 9 134 4.8 12.9 0.00 2.64 2.64 99 1010.1
20201125213859 9 161 6.4 12.9 0.00 2.64 2.64 99 1010.2
20201125213400 10 159 6.4 12.9 0.00 2.64 2.64 99 1010.2
20201125212859 9 226 6.4 16.1 0.00 2.64 2.64 99 1010.5
20201125212403 9 157 6.4 16.1 0.00 2.64 2.64 99 1010.4
20201125211914 9 172 6.4 17.7 0.00 2.64 2.64 99 1010.4
20201125211358 9 162 6.4 17.7 0.00 2.64 2.64 99 1010.5
20201125210905 9 187 6.4 17.7 0.00 2.64 2.64 99 1010.4
20201125210410 9 236 6.4 17.7 0.00 2.64 2.64 99 1010.5
20201125205859 9 258 6.4 12.9 0.00 2.64 2.64 99 1010.5
20201125205358 9 158 6.4 17.7 0.00 2.64 2.64 99 1010.5
20201125204904 9 211 6.4 17.7 0.00 2.64 2.64 99 1010.6
20201125204358 9 178 6.4 17.7 0.00 2.64 2.64 99 1010.6
20201125203859 9 167 6.4 17.7 0.00 2.64 2.64 99 1010.6
20201125203358 8 207 6.4 19.3 0.00 2.64 2.64 99 1010.6
20201125202859 8 294 8.0 19.3 0.00 2.64 2.64 99 1010.5
20201125202355 8 200 8.0 17.7 0.00 2.64 2.64 99 1010.5
20201125201855 8 244 6.4 17.7 0.00 2.64 2.64 99 1010.8
20201125201400 8 185 6.4 17.7 0.00 2.64 2.64 99 1010.9
20201125200854 8 240 6.4 17.7 0.00 2.64 2.64 99 1011.0
20201125200356 8 301 6.4 16.1 0.00 2.64 2.64 99 1011.0
20201125195859 8 185 6.4 16.1 0.00 2.64 2.64 99 1010.9
20201125195357 8 214 6.4 14.5 0.00 2.64 2.64 99 1011.0
20201125194855 8 184 6.4 16.1 0.00 2.67 2.64 99 1011.1
20201125194358 8 180 6.4 16.1 0.00 2.67 2.64 99 1011.2
20201125193858 8 199 4.8 14.5 0.00 2.67 2.64 99 1011.1
20201125193355 8 177 4.8 14.5 0.00 2.67 2.64 99 1011.2
20201125192857 8 272 6.4 17.7 0.03 2.67 2.64 99 1011.2
20201125192355 8 195 6.4 17.7 0.03 2.67 2.64 99 1011.4
20201125191855 8 193 6.4 24.1 0.05 2.67 2.64 99 1011.3
20201125191355 8 215 8.0 24.1 0.05 2.67 2.64 99 1011.5
20201125190855 8 169 8.0 19.3 0.05 2.67 2.64 99 1011.6
20201125190356 8 202 6.4 16.1 0.05 2.67 2.64 99 1011.5
20201125185855 8 203 8.0 17.7 0.05 2.67 2.64 99 1011.4
20201125185352 8 197 8.0 17.7 0.08 2.67 2.64 99 1011.5
20201125184856 8 168 6.4 17.7 0.10 2.67 2.64 99 1011.5
20201125184352 8 232 6.4 17.7 0.13 2.67 2.64 99 1011.7
20201125183850 8 273 6.4 22.5 0.15 2.67 2.64 99 1011.8
20201125183349 8 208 6.4 22.5 0.15 2.67 2.64 99 1011.9
20201125182850 8 147 8.0 22.5 0.15 2.64 2.62 99 1012.1
20201125182349 8 167 8.0 22.5 0.18 2.64 2.62 99 1012.0
20201125181852 8 188 8.0 22.5 0.23 2.64 2.62 99 1012.3
20201125181349 8 150 8.0 19.3 0.33 2.64 2.62 99 1012.1
20201125180850 8 204 8.0 19.3 0.46 2.64 2.62 99 1012.3
20201125180352 7 199 8.0 20.9 0.48 2.64 2.62 99 1012.3
20201125175853 7 232 8.0 20.9 0.51 2.62 2.59 99 1012.4
20201125175350 7 174 6.4 17.7 0.53 2.59 2.59 99 1012.7
20201125174854 7 198 8.0 20.9 0.58 2.57 2.54 99 1012.7
20201125174350 7 207 9.7 20.9 0.61 2.54 2.51 99 1012.9
20201125173850 7 181 8.0 19.3 0.71 2.51 2.49 99 1012.9
20201125173349 7 218 8.0 22.5 0.79 2.51 2.49 99 1013.0
20201125172850 7 179 8.0 22.5 0.79 2.49 2.46 99 1013.0
20201125172351 7 117 8.0 19.3 0.76 2.44 2.41 99 1013.3
20201125171844 7 221 8.0 19.3 0.71 2.39 2.36 99 1013.3
20201125171346 7 223 6.4 17.7 0.64 2.31 2.29 99 1013.5
20201125170843 7 214 6.4 17.7 0.51 2.16 2.16 99 1013.5
20201125170341 7 171 6.4 16.1 0.48 2.16 2.13 99 1013.6
20201125165845 7 166 8.0 22.5 0.48 2.11 2.08 99 1013.6
20201125165343 7 232 8.0 22.5 0.43 2.06 2.03 99 1013.7
20201125164841 7 166 8.0 19.3 0.38 1.98 1.98 99 1013.9
20201125164342 7 189 8.0 22.5 0.36 1.93 1.93 99 1014.1
20201125163844 7 152 6.4 22.5 0.33 1.80 1.78 99 1014.2
20201125163346 7 227 6.4 19.3 0.28 1.70 1.70 99 1014.4
20201125162841 7 226 6.4 19.3 0.28 1.70 1.68 99 1014.5
20201125162343 7 242 4.8 16.1 0.30 1.70 1.68 99 1014.6
20201125161843 7 244 6.4 20.9 0.30 1.68 1.65 99 1014.8
20201125161343 7 167 6.4 20.9 0.33 1.68 1.65 99 1014.8
20201125160843 7 201 6.4 17.7 0.38 1.68 1.65 99 1014.8
20201125160343 7 213 6.4 17.7 0.41 1.65 1.65 99 1015.0
20201125155843 7 179 6.4 17.7 0.41 1.65 1.63 99 1015.2
20201125155348 7 135 6.4 17.7 0.43 1.63 1.60 99 1015.3
20201125154852 7 206 6.4 14.5 0.43 1.60 1.60 99 1015.4
20201125154345 7 227 6.4 16.1 0.43 1.55 1.55 99 1015.5
20201125153842 7 206 6.4 16.1 0.38 1.50 1.47 99 1015.5
20201125153343 7 227 8.0 20.9 0.38 1.45 1.42 99 1015.6
20201125152843 7 166 8.0 20.9 0.38 1.42 1.40 99 1015.6
20201125152340 7 157 8.0 25.7 0.38 1.40 1.37 99 1015.7
20201125151836 7 160 6.4 25.7 0.38 1.37 1.35 99 1015.8
20201125151335 7 249 6.4 20.9 0.36 1.35 1.32 99 1015.9
20201125150831 6 183 8.0 24.1 0.33 1.30 1.27 99 1015.9
20201125150330 6 208 8.0 24.1 0.28 1.27 1.24 99 1015.9
20201125145831 6 181 8.0 29.0 0.28 1.24 1.22 99 1015.9
20201125145330 6 220 6.4 29.0 0.28 1.19 1.17 99 1016.0
20201125144832 6 176 6.4 17.7 0.25 1.17 1.14 99 1016.2
20201125144331 6 175 6.4 20.9 0.25 1.14 1.12 99 1016.2
20201125143832 6 223 6.4 20.9 0.20 1.09 1.09 99 1016.3
20201125143332 6 130 6.4 17.7 0.18 1.07 1.04 99 1016.3
20201125142831 6 220 8.0 19.3 0.18 1.04 1.02 99 1016.4
20201125142331 6 178 6.4 19.3 0.15 1.02 0.99 99 1016.3
20201125141840 6 184 8.0 20.9 0.13 0.99 0.97 99 1016.4
20201125141334 6 221 8.0 20.9 0.15 0.99 0.97 99 1016.4
20201125140831 6 160 8.0 20.9 0.15 0.97 0.94 99 1016.5
20201125140332 6 155 8.0 25.7 0.18 0.97 0.94 99 1016.4
20201125135831 6 205 8.0 25.7 0.18 0.97 0.94 99 1016.6
20201125135330 6 218 8.0 24.1 0.18 0.94 0.91 99 1016.6
20201125134829 6 238 6.4 24.1 0.20 0.91 0.89 99 1016.7
20201125134327 6 229 6.4 14.5 0.23 0.89 0.86 99 1016.6
20201125133825 6 145 6.4 14.5 0.25 0.89 0.86 99 1016.6
20201125133329 6 209 6.4 14.5 0.28 0.89 0.86 99 1016.5
20201125132820 6 202 6.4 14.5 0.30 0.86 0.84 99 1016.4
20201125132322 6 171 6.4 14.5 0.33 0.86 0.84 99 1016.4
20201125131821 6 226 6.4 17.7 0.36 0.86 0.84 99 1016.3
20201125131320 6 254 4.8 17.7 0.38 0.84 0.81 99 1016.3
20201125130819 6 187 4.8 14.5 0.38 0.81 0.79 99 1016.3
20201125130321 6 203 6.4 19.3 0.38 0.79 0.79 99 1016.4
20201125125819 6 190 6.4 19.3 0.38 0.79 0.76 99 1016.5
20201125125323 6 219 6.4 14.5 0.36 0.74 0.71 99 1016.5
20201125124820 6 242 6.4 22.5 0.33 0.71 0.69 99 1016.5
20201125124321 6 236 6.4 22.5 0.33 0.66 0.64 99 1016.5
20201125123820 5 187 6.4 16.1 0.30 0.64 0.61 99 1016.6
20201125123323 5 233 6.4 20.9 0.30 0.61 0.58 98 1016.6
20201125122820 5 246 6.4 20.9 0.28 0.56 0.56 98 1016.6
20201125122322 5 148 6.4 20.9 0.28 0.53 0.51 98 1016.6
20201125121820 5 189 6.4 20.9 0.28 0.51 0.48 98 1016.5
20201125121321 5 248 4.8 16.1 0.28 0.48 0.46 97 1016.6
20201125120820 5 259 4.8 16.1 0.30 0.46 0.43 97 1016.6
20201125120321 5 199 6.4 12.9 0.33 0.43 0.41 97 1016.7
20201125115820 5 233 6.4 14.5 0.33 0.41 0.38 96 1016.7
20201125115317 5 231 6.4 14.5 0.30 0.38 0.36 96 1016.7
20201125114820 5 224 4.8 14.5 0.30 0.36 0.33 94 1016.6
20201125114315 5 175 4.8 14.5 0.28 0.33 0.33 93 1016.5
20201125113815 5 176 6.4 19.3 0.28 0.33 0.30 93 1016.5
20201125113318 5 258 6.4 19.3 0.25 0.28 0.28 92 1016.5
20201125112815 6 211 4.8 12.9 0.23 0.28 0.25 91 1016.5
20201125112313 6 231 6.4 17.7 0.23 0.25 0.23 90 1016.5
20201125111812 6 265 6.4 17.7 0.18 0.20 0.18 90 1016.5
20201125111311 6 281 6.4 16.1 0.15 0.18 0.15 88 1016.6
20201125110812 6 202 6.4 19.3 0.10 0.15 0.13 87 1016.6
20201125110312 6 236 6.4 19.3 0.08 0.10 0.10 85 1016.6
20201125105811 6 270 6.4 14.5 0.08 0.10 0.08 84 1016.7
20201125105312 6 234 8.0 16.1 0.05 0.08 0.05 83 1016.8
20201125104814 6 258 6.4 19.3 0.05 0.05 0.05 81 1016.8
20201125104313 6 271 6.4 19.3 0.03 0.05 0.03 80 1016.8
20201125103814 6 267 6.4 16.1 0.03 0.05 0.03 79 1016.8
20201125103315 6 259 6.4 16.1 0.03 0.05 0.03 79 1016.7
20201125102813 6 273 6.4 14.5 0.03 0.05 0.03 79 1016.7
20201125102312 6 266 6.4 14.5 0.00 0.03 0.00 79 1016.6
20201125101812 6 245 4.8 12.9 0.00 0.03 0.00 79 1016.6
20201125101314 6 180 4.8 12.9 0.00 0.03 0.00 79 1016.5
20201125100811 6 238 4.8 12.9 0.00 0.03 0.00 79 1016.3
20201125100311 6 227 3.2 8.0 0.00 0.03 0.00 78 1016.4
20201125095812 6 248 3.2 8.0 0.00 0.03 0.00 77 1016.3
20201125095310 6 229 3.2 11.3 0.00 0.03 0.00 77 1016.3
20201125094810 6 270 4.8 14.5 0.00 0.03 0.00 75 1016.2
20201125094310 6 258 4.8 14.5 0.00 0.03 0.00 74 1016.2
20201125093823 6 300 4.8 16.1 0.00 0.03 0.00 74 1016.2
20201125093312 6 251 6.4 16.1 0.00 0.03 0.00 74 1016.2
20201125092813 6 211 6.4 14.5 0.00 0.03 0.00 74 1016.2
20201125092315 6 208 4.8 11.3 0.00 0.03 0.00 74 1016.2
20201125091810 6 156 4.8 11.3 0.00 0.03 0.00 75 1016.2
20201125091313 6 218 4.8 11.3 0.00 0.03 0.00 75 1015.9
20201125090812 5 218 4.8 11.3 0.00 0.03 0.00 75 1015.9
20201125090313 5 171 4.8 16.1 0.00 0.03 0.00 77 1016.0
20201125085834 5 183 6.4 16.1 0.00 0.03 0.00 77 1016.0
20201125085310 5 255 6.4 14.5 0.00 0.03 0.00 77 1016.0
20201125084811 5 237 6.4 14.5 0.00 0.03 0.00 77 1016.0
20201125084313 5 195 6.4 19.3 0.00 0.03 0.00 78 1016.2
20201125083811 5 169 6.4 19.3 0.00 0.03 0.00 78 1016.0
20201125083308 5 244 6.4 12.9 0.00 0.03 0.00 78 1016.2
20201125082804 5 192 6.4 17.7 0.00 0.03 0.00 78 1016.2
20201125082306 5 254 6.4 17.7 0.00 0.03 0.00 79 1016.0
20201125081807 5 246 4.8 14.5 0.00 0.03 0.00 79 1016.3
20201125081308 5 179 4.8 14.5 0.00 0.03 0.00 80 1016.3
20201125080805 5 183 4.8 14.5 0.00 0.03 0.00 80 1016.4
20201125080305 4 235 6.4 16.1 0.00 0.03 0.00 81 1016.3
20201125075807 4 208 4.8 16.1 0.00 0.03 0.00 81 1016.3
20201125075306 3 138 3.2 14.5 0.00 0.03 0.00 83 1016.2
20201125074805 3 256 3.2 9.7 0.00 0.03 0.00 83 1016.0
20201125074305 3 278 3.2 9.7 0.00 0.03 0.00 84 1016.2
20201125073805 3 277 3.2 9.7 0.00 0.03 0.00 84 1016.3
20201125073306 3 144 3.2 8.0 0.00 0.03 0.00 84 1016.0
20201125072803 3 227 3.2 16.1 0.00 0.03 0.00 84 1016.2
20201125072305 3 130 3.2 16.1 0.00 0.03 0.00 85 1016.3
20201125071803 2 151 1.6 4.8 0.00 0.03 0.00 84 1016.3
20201125071303 2 121 1.6 4.8 0.00 0.03 0.00 84 1016.3
20201125070802 2 143 3.2 6.4 0.00 0.03 0.00 83 1016.4
20201125070308 2 130 3.2 6.4 0.00 0.03 0.00 83 1016.4
20201125065803 2 154 1.6 6.4 0.00 0.03 0.00 83 1016.4
20201125065302 3 165 1.6 4.8 0.00 0.03 0.00 83 1016.7
20201125064802 2 144 0.0 4.8 0.00 0.03 0.00 83 1016.7
20201125064304 3 0 0.0 3.2 0.00 0.03 0.00 81 1016.7
20201125063802 3 0 0.0 4.8 0.00 0.03 0.00 81 1016.7
20201125063305 3 0 0.0 6.4 0.00 0.03 0.00 81 1016.8
20201125062800 3 0 0.0 6.4 0.00 0.03 0.00 81 1016.7
20201125062256 3 0 0.0 3.2 0.00 0.03 0.00 80 1016.8
20201125061757 3 0 0.0 3.2 0.00 0.03 0.00 80 1016.9
20201125061257 3 0 0.0 3.2 0.00 0.03 0.00 80 1016.9
20201125060758 3 0 0.0 3.2 0.00 0.03 0.00 80 1016.8
20201125060258 3 0 0.0 4.8 0.00 0.03 0.00 80 1016.7
20201125055758 3 0 1.6 4.8 0.00 0.03 0.00 79 1016.6
20201125055258 3 0 1.6 8.0 0.00 0.03 0.00 79 1016.6
20201125054757 3 123 3.2 8.0 0.00 0.03 0.00 79 1016.6
20201125054258 3 115 1.6 6.4 0.00 0.03 0.00 79 1016.6
20201125053757 3 137 1.6 6.4 0.00 0.03 0.00 79 1016.6
20201125053257 3 0 1.6 4.8 0.00 0.03 0.00 79 1016.7
20201125052800 3 160 1.6 6.4 0.00 0.03 0.00 79 1016.8
20201125052306 3 0 1.6 6.4 0.00 0.03 0.00 79 1016.7
20201125051757 3 206 1.6 8.0 0.00 0.03 0.00 79 1016.7
20201125051304 3 0 1.6 8.0 0.00 0.03 0.00 79 1016.8
20201125050758 3 271 1.6 6.4 0.00 0.03 0.00 79 1016.9
20201125050301 4 0 1.6 8.0 0.00 0.03 0.00 79 1017.0
20201125045751 4 166 1.6 8.0 0.00 0.03 0.03 79 1017.0
20201125045252 3 155 3.2 6.4 0.00 0.03 0.03 79 1016.9
20201125044749 4 123 3.2 9.7 0.00 0.03 0.03 79 1016.8
20201125044250 3 149 3.2 9.7 0.00 0.03 0.03 79 1016.9
20201125043751 3 196 3.2 12.9 0.00 0.03 0.03 79 1016.9
20201125043249 3 153 3.2 12.9 0.00 0.03 0.03 79 1017.0
20201125042749 3 141 3.2 11.3 0.00 0.03 0.03 79 1017.0
20201125042249 3 129 3.2 11.3 0.00 0.03 0.03 79 1017.0
20201125041750 3 127 3.2 8.0 0.00 0.03 0.03 79 1017.0
20201125041249 3 0 3.2 9.7 0.00 0.03 0.03 79 1017.2
20201125040750 3 125 3.2 9.7 0.00 0.03 0.03 79 1017.2
20201125040251 3 0 3.2 11.3 0.00 0.03 0.03 79 1017.4
20201125035750 3 129 3.2 11.3 0.00 0.03 0.03 79 1017.5